Time;durP1;ratioP1;P1;durP2;ratioP2;P2;SDS_P1;SDS_P2;PMS_P1;PMS_P2;Temp;Humidity;BMP_temperature;BMP_pressure;BME280_temperature;BME280_humidity;BME280_pressure;Samples;Min_cycle;Max_cycle;Signal;HPM_P1;HPM_P2
2023/03/28 00:01:30;;;;;;;;;;;;;;;6.65;100.00;98385.81;5083121;28;19924;-71
2023/03/28 00:03:56;;;;;;;;;;;;;;;6.60;100.00;98390.97;5080654;28;19925;-71
2023/03/28 00:06:23;;;;;;;;;;;;;;;6.59;100.00;98391.19;5079385;28;19925;-72
2023/03/28 00:08:50;;;;;;;;;;;;;;;6.59;100.00;98388.53;5072632;28;19930;-70
2023/03/28 00:11:18;;;;;;;;;;;;;;;6.38;100.00;98393.28;5080923;28;19924;-71
2023/03/28 00:13:45;;;;;;;;;;;;;;;6.43;100.00;98393.44;5083656;28;19930;-71
2023/03/28 00:16:13;;;;;;;;;;;;;;;6.37;100.00;98397.00;5083867;28;19928;-71
2023/03/28 00:18:40;;;;;;;;;;;;;;;6.30;100.00;98398.91;5082057;28;19925;-70
2023/03/28 00:21:08;;;;;;;;;;;;;;;6.43;100.00;98406.72;5080580;28;19929;-71
2023/03/28 00:23:35;;;;;;;;;;;;;;;6.32;100.00;98399.50;5081011;28;19963;-70
2023/03/28 00:26:06;;;;;;;;;;;;;;;6.38;100.00;98405.75;5084371;28;20167;-71
2023/03/28 00:28:34;;;;;;;;;;;;;;;6.41;100.00;98400.81;5083005;28;19924;-71
2023/03/28 00:31:02;;;;;;;;;;;;;;;6.52;100.00;98404.56;5079330;28;19950;-71
2023/03/28 00:33:29;;;;;;;;;;;;;;;6.41;100.00;98406.09;5082886;28;19964;-71
2023/03/28 00:35:56;;;;;;;;;;;;;;;6.53;100.00;98400.84;5080235;28;19936;-71
2023/03/28 00:38:22;;;;;;;;;;;;;;;6.52;100.00;98396.59;5080002;28;19992;-71
2023/03/28 00:40:48;;;;;;;;;;;;;;;6.45;100.00;98396.69;5071803;28;19994;-71
2023/03/28 00:43:15;;;;;;;;;;;;;;;6.41;100.00;98416.72;5079948;28;19925;-71
2023/03/28 00:45:41;;;;;;;;;;;;;;;6.38;100.00;98416.34;5082573;28;19925;-71
2023/03/28 00:48:12;;;;;;;;;;;;;;;6.43;100.00;98414.69;5083584;28;19924;-70
2023/03/28 00:50:42;;;;;;;;;;;;;;;6.56;100.00;98411.00;5081408;28;19952;-71
2023/03/28 00:53:12;;;;;;;;;;;;;;;6.50;100.00;98419.88;5079986;28;19925;-70
2023/03/28 00:55:42;;;;;;;;;;;;;;;6.41;100.00;98421.22;5081762;28;19991;-71
2023/03/28 00:58:10;;;;;;;;;;;;;;;6.40;100.00;98415.13;5083162;28;19954;-71
2023/03/28 01:00:37;;;;;;;;;;;;;;;6.23;100.00;98415.94;5076678;28;19935;-70
2023/03/28 01:03:05;;;;;;;;;;;;;;;6.20;100.00;98424.34;5082997;28;20590;-70
2023/03/28 01:05:32;;;;;;;;;;;;;;;6.27;100.00;98420.59;5081677;28;19924;-70
2023/03/28 01:08:03;;;;;;;;;;;;;;;6.40;100.00;98425.72;5079348;28;19989;-70
2023/03/28 01:10:30;;;;;;;;;;;;;;;6.45;100.00;98428.50;5079882;28;19960;-70
2023/03/28 01:12:57;;;;;;;;;;;;;;;6.36;100.00;98419.25;5082330;28;20467;-71
2023/03/28 01:15:24;;;;;;;;;;;;;;;6.27;100.00;98428.53;5082232;28;20561;-70
2023/03/28 01:17:51;;;;;;;;;;;;;;;6.31;100.00;98432.34;5079164;28;19931;-71
2023/03/28 01:20:28;;;;;;;;;;;;;;;6.39;100.00;98434.72;5079108;28;20001;-71
2023/03/28 01:23:13;;;;;;;;;;;;;;;6.33;100.00;98440.91;5071645;28;20008;-71
2023/03/28 01:25:52;;;;;;;;;;;;;;;6.40;100.00;98440.84;5081405;28;19948;-70
2023/03/28 01:28:27;;;;;;;;;;;;;;;6.35;100.00;98444.16;5082791;28;19925;-71
2023/03/28 01:31:11;;;;;;;;;;;;;;;6.31;100.00;98444.81;5069629;28;19920;-70
2023/03/28 01:33:47;;;;;;;;;;;;;;;6.40;100.00;98457.56;5073124;28;19924;-71
2023/03/28 01:36:22;;;;;;;;;;;;;;;6.44;100.00;98461.38;5078823;28;19987;-71
2023/03/28 01:38:53;;;;;;;;;;;;;;;6.48;100.00;98456.44;5070597;28;19956;-70
2023/03/28 01:41:23;;;;;;;;;;;;;;;6.46;100.00;98464.63;5078615;28;19955;-71
2023/03/28 01:43:56;;;;;;;;;;;;;;;6.49;100.00;98472.16;5070512;28;20008;-71
2023/03/28 01:46:25;;;;;;;;;;;;;;;6.50;100.00;98471.09;5078569;28;20000;-71
2023/03/28 01:48:57;;;;;;;;;;;;;;;6.47;100.00;98466.25;5070665;28;19959;-71
2023/03/28 01:51:30;;;;;;;;;;;;;;;6.48;100.00;98475.81;5078419;28;19986;-71
2023/03/28 01:54:01;;;;;;;;;;;;;;;6.39;100.00;98474.50;5082207;28;19947;-71
2023/03/28 01:56:31;;;;;;;;;;;;;;;6.40;100.00;98467.38;5081525;28;19984;-71
2023/03/28 01:58:59;;;;;;;;;;;;;;;6.40;100.00;98468.19;5078538;28;19991;-71
2023/03/28 02:01:29;;;;;;;;;;;;;;;6.26;100.00;98474.66;5080216;28;19959;-71
2023/03/28 02:04:00;;;;;;;;;;;;;;;6.29;100.00;98460.13;5078366;28;19929;-71
2023/03/28 02:06:27;;;;;;;;;;;;;;;6.17;100.00;98470.69;5078599;28;19948;-70
2023/03/28 02:08:54;;;;;;;;;;;;;;;6.26;100.00;98469.34;5078120;28;20699;-70
2023/03/28 02:11:23;;;;;;;;;;;;;;;6.22;100.00;98473.47;5078026;28;19947;-70
2023/03/28 02:13:53;;;;;;;;;;;;;;;6.10;100.00;98474.41;5069907;28;20007;-70
2023/03/28 02:16:22;;;;;;;;;;;;;;;6.07;100.00;98470.38;5078013;28;19976;-71
2023/03/28 02:18:51;;;;;;;;;;;;;;;6.23;100.00;98477.75;5069598;28;20048;-70
2023/03/28 02:21:19;;;;;;;;;;;;;;;6.13;100.00;98469.50;5077762;28;20031;-70
2023/03/28 02:23:47;;;;;;;;;;;;;;;6.13;100.00;98477.44;5079962;28;19956;-71
2023/03/28 02:26:13;;;;;;;;;;;;;;;6.10;100.00;98477.88;5081231;28;19966;-70
2023/03/28 02:28:43;;;;;;;;;;;;;;;6.20;100.00;98480.84;5079148;28;19956;-70
2023/03/28 02:31:10;;;;;;;;;;;;;;;6.15;100.00;98485.19;5077845;28;19924;-70
2023/03/28 02:33:38;;;;;;;;;;;;;;;6.18;100.00;98479.44;5079512;28;19925;-71
2023/03/28 02:36:16;;;;;;;;;;;;;;;6.17;100.00;98481.28;5077790;28;19925;-71
2023/03/28 02:38:48;;;;;;;;;;;;;;;6.21;100.00;98485.13;5080195;28;20016;-71
2023/03/28 02:41:20;;;;;;;;;;;;;;;6.24;100.00;98482.03;5081131;28;19935;-71
2023/03/28 02:43:58;;;;;;;;;;;;;;;6.23;100.00;98487.53;5077919;28;19983;-71
2023/03/28 02:46:30;;;;;;;;;;;;;;;6.24;100.00;98483.88;5077591;28;19925;-71
2023/03/28 02:49:05;;;;;;;;;;;;;;;6.23;100.00;98475.09;5081089;28;20023;-71
2023/03/28 02:51:34;;;;;;;;;;;;;;;6.21;100.00;98489.63;5079738;28;20503;-71
2023/03/28 02:54:10;;;;;;;;;;;;;;;6.15;100.00;98491.31;5077479;28;19955;-70
2023/03/28 02:56:40;;;;;;;;;;;;;;;6.07;100.00;98488.94;5079102;28;19928;-70
2023/03/28 02:59:10;;;;;;;;;;;;;;;6.17;100.00;98496.38;5080848;28;19977;-70
2023/03/28 03:01:39;;;;;;;;;;;;;;;6.15;100.00;98498.47;5078843;28;20014;-70
2023/03/28 03:04:06;;;;;;;;;;;;;;;5.91;100.00;98497.47;5077423;28;19925;-70
2023/03/28 03:06:34;;;;;;;;;;;;;;;5.95;100.00;98509.25;5078444;28;19929;-70
2023/03/28 03:09:00;;;;;;;;;;;;;;;5.93;100.00;98508.66;5080695;28;19928;-70
2023/03/28 03:11:27;;;;;;;;;;;;;;;6.02;100.00;98512.66;5080290;28;19925;-69
2023/03/28 03:13:54;;;;;;;;;;;;;;;6.02;100.00;98517.97;5077236;28;19921;-70
2023/03/28 03:16:22;;;;;;;;;;;;;;;5.83;100.00;98519.72;5077416;28;19955;-70
2023/03/28 03:18:49;;;;;;;;;;;;;;;6.01;100.00;98520.81;5069531;28;19931;-70
2023/03/28 03:21:15;;;;;;;;;;;;;;;5.96;100.00;98514.34;5077818;28;19924;-70
2023/03/28 03:23:41;;;;;;;;;;;;;;;6.02;100.00;98522.44;5079126;28;19928;-70
2023/03/28 03:26:08;;;;;;;;;;;;;;;6.04;100.00;98526.50;5081460;28;19959;-70
2023/03/28 03:28:34;;;;;;;;;;;;;;;6.05;100.00;98522.00;5079562;28;19982;-70
2023/03/28 03:31:00;;;;;;;;;;;;;;;5.97;100.00;98521.25;5075954;28;19929;-70
2023/03/28 03:33:28;;;;;;;;;;;;;;;6.03;100.00;98522.25;5080439;28;20524;-71
2023/03/28 03:35:54;;;;;;;;;;;;;;;5.88;100.00;98527.88;5081038;28;19974;-70
2023/03/28 03:38:21;;;;;;;;;;;;;;;5.91;100.00;98532.72;5081266;28;19951;-69
2023/03/28 03:40:47;;;;;;;;;;;;;;;5.96;100.00;98521.47;5084338;28;19928;-70
2023/03/28 03:43:14;;;;;;;;;;;;;;;5.87;100.00;98530.75;5084637;28;19931;-70
2023/03/28 03:45:40;;;;;;;;;;;;;;;5.98;100.00;98532.66;5082282;28;19924;-71
2023/03/28 03:48:07;;;;;;;;;;;;;;;5.97;100.00;98531.84;5080989;28;19990;-70
2023/03/28 03:50:35;;;;;;;;;;;;;;;5.89;100.00;98536.63;5081990;28;19957;-70
2023/03/28 03:53:01;;;;;;;;;;;;;;;5.96;100.00;98537.38;5084531;28;19925;-70
2023/03/28 03:55:27;;;;;;;;;;;;;;;5.87;100.00;98534.22;5083918;28;20032;-70
2023/03/28 03:57:54;;;;;;;;;;;;;;;5.91;100.00;98532.72;5080814;28;19980;-70
2023/03/28 04:00:20;;;;;;;;;;;;;;;5.67;100.00;98535.34;5081573;28;19925;-70
2023/03/28 04:02:47;;;;;;;;;;;;;;;5.71;100.00;98549.81;5084761;28;19992;-70
2023/03/28 04:05:13;;;;;;;;;;;;;;;5.54;100.00;98551.38;5085207;28;19996;-70
2023/03/28 04:07:41;;;;;;;;;;;;;;;5.66;100.00;98557.59;5082769;28;19924;-70
2023/03/28 04:10:08;;;;;;;;;;;;;;;5.72;100.00;98560.19;5081719;28;19956;-70
2023/03/28 04:12:34;;;;;;;;;;;;;;;5.67;100.00;98559.19;5082769;28;19956;-70
2023/03/28 04:15:01;;;;;;;;;;;;;;;5.58;100.00;98563.16;5085005;28;19920;-70
2023/03/28 04:17:28;;;;;;;;;;;;;;;5.54;100.00;98572.56;5084308;28;20367;-70
2023/03/28 04:19:57;;;;;;;;;;;;;;;5.53;100.00;98566.47;5080483;28;21418;-71
2023/03/28 04:22:28;;;;;;;;;;;;;;;5.58;100.00;98569.25;5080900;28;19929;-71
2023/03/28 04:24:56;;;;;;;;;;;;;;;5.53;100.00;98563.00;5073432;28;19931;-70
2023/03/28 04:27:25;;;;;;;;;;;;;;;5.57;100.00;98564.97;5080882;28;19924;-71
2023/03/28 04:29:53;;;;;;;;;;;;;;;5.60;100.00;98569.06;5072519;28;19925;-70
2023/03/28 04:32:20;;;;;;;;;;;;;;;5.59;100.00;98557.66;5080658;28;19925;-70
2023/03/28 04:34:48;;;;;;;;;;;;;;;5.48;100.00;98570.78;5083735;28;20373;-70
2023/03/28 04:37:14;;;;;;;;;;;;;;;5.44;100.00;98573.03;5083987;28;19968;-70
2023/03/28 04:39:43;;;;;;;;;;;;;;;5.42;100.00;98578.53;5081236;28;19924;-70
2023/03/28 04:42:11;;;;;;;;;;;;;;;5.47;100.00;98577.09;5080218;28;19924;-70
2023/03/28 04:44:37;;;;;;;;;;;;;;;5.39;100.00;98586.09;5082356;28;19992;-70
2023/03/28 04:47:03;;;;;;;;;;;;;;;5.30;100.00;98590.84;5083372;28;20015;-70
2023/03/28 04:49:30;;;;;;;;;;;;;;;5.18;100.00;98586.41;5083406;28;20012;-71
2023/03/28 04:51:56;;;;;;;;;;;;;;;5.22;100.00;98592.94;5080551;28;20041;-71
2023/03/28 04:54:22;;;;;;;;;;;;;;;5.10;100.00;98587.50;5080721;28;20083;-71
2023/03/28 04:56:49;;;;;;;;;;;;;;;5.10;100.00;98590.16;5072305;28;19992;-70
2023/03/28 04:59:17;;;;;;;;;;;;;;;5.33;100.00;98597.53;5080406;28;19988;-70
2023/03/28 05:01:47;;;;;;;;;;;;;;;5.40;100.00;98598.31;5082179;28;19970;-70
2023/03/28 05:04:14;;;;;;;;;;;;;;;5.40;100.00;98585.06;5080605;28;19929;-70
2023/03/28 05:06:40;;;;;;;;;;;;;;;5.26;100.00;98600.22;5083076;28;19936;-70
2023/03/28 05:09:06;;;;;;;;;;;;;;;5.18;100.00;98595.19;5084598;28;19964;-70
2023/03/28 05:11:33;;;;;;;;;;;;;;;5.20;100.00;98606.38;5083135;28;19952;-71
2023/03/28 05:13:59;;;;;;;;;;;;;;;5.16;100.00;98607.00;5080854;28;19925;-70
2023/03/28 05:16:27;;;;;;;;;;;;;;;5.19;100.00;98601.28;5080527;28;19988;-70
2023/03/28 05:18:55;;;;;;;;;;;;;;;5.08;100.00;98605.41;5083418;28;19995;-70
2023/03/28 05:21:21;;;;;;;;;;;;;;;5.19;100.00;98607.41;5083495;28;19935;-71
2023/03/28 05:23:47;;;;;;;;;;;;;;;5.24;100.00;98612.88;5083293;28;19920;-70
2023/03/28 05:26:14;;;;;;;;;;;;;;;5.34;100.00;98607.94;5085069;28;19971;-70
2023/03/28 05:28:41;;;;;;;;;;;;;;;5.27;100.00;98603.69;5087805;28;19924;-72
2023/03/28 05:31:07;;;;;;;;;;;;;;;5.41;100.00;98616.66;5087888;28;19971;-70
2023/03/28 05:33:35;;;;;;;;;;;;;;;5.49;100.00;98622.72;5084571;28;20038;-70
2023/03/28 05:36:01;;;;;;;;;;;;;;;5.32;100.00;98615.25;5081438;28;19947;-70
2023/03/28 05:38:30;;;;;;;;;;;;;;;5.37;100.00;98622.59;5080537;28;19928;-70
2023/03/28 05:40:57;;;;;;;;;;;;;;;5.24;100.00;98618.16;5082194;28;19940;-71
2023/03/28 05:43:24;;;;;;;;;;;;;;;5.40;100.00;98620.31;5083372;28;19947;-71
2023/03/28 05:45:51;;;;;;;;;;;;;;;5.39;100.00;98633.78;5071619;28;19924;-70
2023/03/28 05:48:17;;;;;;;;;;;;;;;5.22;100.00;98635.28;5079507;28;19924;-71
2023/03/28 05:50:45;;;;;;;;;;;;;;;5.31;100.00;98634.03;5082170;28;19936;-70
2023/03/28 05:53:11;;;;;;;;;;;;;;;5.42;100.00;98638.66;5075304;28;19935;-71
2023/03/28 05:55:38;;;;;;;;;;;;;;;5.45;100.00;98638.22;5081368;28;20404;-71
2023/03/28 05:58:05;;;;;;;;;;;;;;;5.52;100.00;98640.84;5082768;28;19924;-71
2023/03/28 06:00:31;;;;;;;;;;;;;;;5.57;100.00;98643.69;5076468;28;19925;-71
2023/03/28 06:02:58;;;;;;;;;;;;;;;5.55;100.00;98643.06;5082536;28;19939;-70
2023/03/28 06:05:24;;;;;;;;;;;;;;;5.64;100.00;98637.28;5082578;28;19966;-71
2023/03/28 06:07:52;;;;;;;;;;;;;;;5.48;100.00;98645.75;5079342;28;19949;-71
2023/03/28 06:10:19;;;;;;;;;;;;;;;5.39;100.00;98654.97;5079138;28;19980;-71
2023/03/28 06:12:46;;;;;;;;;;;;;;;5.50;100.00;98651.66;5082099;28;19958;-71
2023/03/28 06:15:12;;;;;;;;;;;;;;;5.56;100.00;98655.28;5082322;28;19924;-71
2023/03/28 06:17:39;;;;;;;;;;;;;;;5.56;100.00;98657.94;5080147;28;19971;-70
2023/03/28 06:20:06;;;;;;;;;;;;;;;5.62;100.00;98660.56;5077810;28;19970;-71
2023/03/28 06:22:32;;;;;;;;;;;;;;;5.54;100.00;98657.34;5079898;28;19971;-71
2023/03/28 06:25:00;;;;;;;;;;;;;;;5.50;100.00;98672.03;5082147;28;19951;-71
2023/03/28 06:27:26;;;;;;;;;;;;;;;5.38;100.00;98680.63;5081862;28;19935;-71
2023/03/28 06:29:53;;;;;;;;;;;;;;;5.32;100.00;98673.53;5078585;28;19996;-71
2023/03/28 06:32:19;;;;;;;;;;;;;;;5.31;100.00;98685.16;5078712;28;19984;-71
2023/03/28 06:34:45;;;;;;;;;;;;;;;5.24;100.00;98689.66;5081413;28;19947;-70
2023/03/28 06:37:12;;;;;;;;;;;;;;;5.37;100.00;98689.63;5081966;28;19924;-70
2023/03/28 06:39:38;;;;;;;;;;;;;;;5.26;100.00;98692.13;5079985;28;19924;-71
2023/03/28 06:42:06;;;;;;;;;;;;;;;5.32;100.00;98681.47;5078382;28;19928;-70
2023/03/28 06:44:32;;;;;;;;;;;;;;;5.48;100.00;98687.34;5079523;28;19960;-70
2023/03/28 06:46:58;;;;;;;;;;;;;;;5.62;100.00;98694.19;5082120;28;20500;-71
2023/03/28 06:49:25;;;;;;;;;;;;;;;5.25;100.00;98695.78;5081665;28;19924;-69
2023/03/28 06:51:51;;;;;;;;;;;;;;;5.41;100.00;98700.63;5078329;28;20012;-70
2023/03/28 06:54:18;;;;;;;;;;;;;;;5.43;100.00;98703.84;5078160;28;19983;-70
2023/03/28 06:56:44;;;;;;;;;;;;;;;5.47;100.00;98709.53;5080885;28;19936;-70
2023/03/28 06:59:12;;;;;;;;;;;;;;;5.51;100.00;98702.81;5081705;28;19959;-70
2023/03/28 07:01:38;;;;;;;;;;;;;;;5.46;100.00;98706.06;5079450;28;20016;-70
2023/03/28 07:04:05;;;;;;;;;;;;;;;5.60;100.00;98714.78;5078124;28;19952;-70
2023/03/28 07:06:31;;;;;;;;;;;;;;;5.57;100.00;98715.22;5078881;28;19991;-70
2023/03/28 07:08:58;;;;;;;;;;;;;;;5.39;100.00;98723.81;5081117;28;19984;-70
2023/03/28 07:11:24;;;;;;;;;;;;;;;5.50;100.00;98735.63;5081488;28;20491;-70
2023/03/28 07:13:51;;;;;;;;;;;;;;;5.53;100.00;98738.66;5077792;28;19932;-70
2023/03/28 07:16:18;;;;;;;;;;;;;;;5.23;100.00;98735.69;5077721;28;19992;-69
2023/03/28 07:18:45;;;;;;;;;;;;;;;5.23;100.00;98738.34;5080760;28;19975;-70
2023/03/28 07:21:13;;;;;;;;;;;;;;;5.22;100.00;98743.88;5081455;28;19998;-70
2023/03/28 07:23:39;;;;;;;;;;;;;;;5.27;100.00;98742.22;5079176;28;19971;-71
2023/03/28 07:26:06;;;;;;;;;;;;;;;5.41;100.00;98749.13;5077953;28;20008;-70
2023/03/28 07:28:33;;;;;;;;;;;;;;;5.31;100.00;98755.84;5079024;28;19924;-70
2023/03/28 07:31:00;;;;;;;;;;;;;;;5.38;100.00;98760.09;5081271;28;19936;-70
2023/03/28 07:33:28;;;;;;;;;;;;;;;5.41;100.00;98765.00;5081136;28;20042;-70
2023/03/28 07:35:54;;;;;;;;;;;;;;;5.38;100.00;98767.25;5077882;28;19925;-70
2023/03/28 07:38:21;;;;;;;;;;;;;;;5.41;100.00;98770.31;5077946;28;20023;-70
2023/03/28 07:40:47;;;;;;;;;;;;;;;5.36;100.00;98767.44;5081017;28;19960;-70
2023/03/28 07:43:13;;;;;;;;;;;;;;;5.49;100.00;98771.06;5081235;28;19928;-70
2023/03/28 07:45:40;;;;;;;;;;;;;;;5.29;100.00;98761.34;5078908;28;19991;-70
2023/03/28 07:48:07;;;;;;;;;;;;;;;5.42;100.00;98771.91;5077627;28;19948;-70
2023/03/28 07:50:35;;;;;;;;;;;;;;;5.27;100.00;98763.41;5078808;28;20527;-71
2023/03/28 07:53:01;;;;;;;;;;;;;;;5.42;100.00;98774.56;5081233;28;20019;-71
2023/03/28 07:55:28;;;;;;;;;;;;;;;5.38;100.00;98775.97;5080793;28;19939;-71
2023/03/28 07:57:55;;;;;;;;;;;;;;;5.49;100.00;98781.66;5077924;28;19945;-71
2023/03/28 08:00:22;;;;;;;;;;;;;;;5.09;100.00;98781.78;5077967;28;19931;-71
2023/03/28 08:02:49;;;;;;;;;;;;;;;5.25;100.00;98780.53;5081166;28;19928;-71
2023/03/28 08:05:16;;;;;;;;;;;;;;;5.33;100.00;98788.22;5081268;28;19948;-72
2023/03/28 08:07:44;;;;;;;;;;;;;;;5.24;100.00;98779.72;5078712;28;19943;-71
2023/03/28 08:10:11;;;;;;;;;;;;;;;5.54;100.00;98781.88;5078099;28;19986;-71
2023/03/28 08:12:37;;;;;;;;;;;;;;;5.54;100.00;98789.81;5079444;28;19932;-71
2023/03/28 08:15:04;;;;;;;;;;;;;;;5.38;100.00;98785.78;5080899;28;19921;-71
2023/03/28 08:17:31;;;;;;;;;;;;;;;5.39;100.00;98787.41;5080063;28;19932;-71
2023/03/28 08:19:57;;;;;;;;;;;;;;;5.50;100.00;98792.06;5077398;28;19964;-70
2023/03/28 08:22:25;;;;;;;;;;;;;;;5.49;100.00;98789.63;5079531;28;19920;-70
2023/03/28 08:24:52;;;;;;;;;;;;;;;5.60;100.00;98788.97;5072790;28;19963;-70
2023/03/28 08:27:19;;;;;;;;;;;;;;;5.45;100.00;98797.16;5080988;28;19988;-71
2023/03/28 08:29:46;;;;;;;;;;;;;;;5.40;100.00;98797.81;5082591;28;19988;-71
2023/03/28 08:32:13;;;;;;;;;;;;;;;5.42;100.00;98803.69;5080682;28;19951;-70
2023/03/28 08:34:40;;;;;;;;;;;;;;;5.56;100.00;98801.84;5082887;28;20337;-70
2023/03/28 08:37:06;;;;;;;;;;;;;;;5.50;100.00;98813.25;5084067;28;19920;-70
2023/03/28 08:39:33;;;;;;;;;;;;;;;5.62;100.00;98818.72;5082928;28;19967;-70
2023/03/28 08:42:12;;;;;;;;;;;;;;;5.58;100.00;98813.03;5080680;28;20031;-70
2023/03/28 08:44:45;;;;;;;;;;;;;;;5.51;100.00;98827.34;5082447;28;19924;-70
2023/03/28 08:47:13;;;;;;;;;;;;;;;5.53;100.00;98826.09;5084093;28;20007;-70
2023/03/28 08:49:44;;;;;;;;;;;;;;;5.62;100.00;98822.19;5081931;28;19924;-71
2023/03/28 08:52:12;;;;;;;;;;;;;;;5.58;100.00;98828.09;5080502;28;19928;-70
2023/03/28 08:54:44;;;;;;;;;;;;;;;5.59;100.00;98829.75;5082480;28;19948;-71
2023/03/28 08:57:16;;;;;;;;;;;;;;;5.75;100.00;98826.63;5084275;28;19928;-70
2023/03/28 08:59:44;;;;;;;;;;;;;;;5.73;100.00;98826.00;5083141;28;19920;-71
2023/03/28 09:02:15;;;;;;;;;;;;;;;5.61;100.00;98828.50;5082569;28;19929;-71
2023/03/28 09:04:41;;;;;;;;;;;;;;;5.65;100.00;98831.56;5085437;28;19960;-70
2023/03/28 09:07:19;;;;;;;;;;;;;;;5.77;100.00;98829.88;5087891;28;19994;-71
2023/03/28 09:09:49;;;;;;;;;;;;;;;5.79;100.00;98833.13;5083282;28;19933;-70
2023/03/28 09:12:26;;;;;;;;;;;;;;;5.69;100.00;98827.47;5081402;28;19947;-71
2023/03/28 09:15:04;;;;;;;;;;;;;;;5.75;100.00;98829.28;5072986;28;19924;-71
2023/03/28 09:17:37;;;;;;;;;;;;;;;5.78;100.00;98826.22;5081636;28;19920;-71
2023/03/28 09:20:10;;;;;;;;;;;;;;;5.75;100.00;98824.81;5084247;28;19947;-71
2023/03/28 09:22:40;;;;;;;;;;;;;;;5.80;100.00;98824.97;5081994;28;19992;-71
2023/03/28 09:25:13;;;;;;;;;;;;;;;5.83;98.46;98839.66;5080424;28;19925;-71
2023/03/28 09:27:46;;;;;;;;;;;;;;;5.87;96.06;98827.63;5081989;28;19936;-71
2023/03/28 09:30:17;;;;;;;;;;;;;;;5.98;95.39;98832.28;5078633;28;19932;-72
2023/03/28 09:32:44;;;;;;;;;;;;;;;5.99;96.79;98836.56;5082423;28;19947;-71
2023/03/28 09:35:15;;;;;;;;;;;;;;;5.83;95.61;98843.13;5084299;28;19967;-71
2023/03/28 09:37:42;;;;;;;;;;;;;;;5.83;96.71;98837.81;5082373;28;19931;-71
2023/03/28 09:40:20;;;;;;;;;;;;;;;5.72;90.89;98835.00;5082281;28;19928;-70
2023/03/28 09:42:54;;;;;;;;;;;;;;;5.71;94.09;98842.13;5085662;28;20000;-71
2023/03/28 09:45:31;;;;;;;;;;;;;;;5.76;92.40;98841.50;5086817;28;19925;-72
2023/03/28 09:47:57;;;;;;;;;;;;;;;5.84;92.85;98843.94;5076202;28;19972;-71
2023/03/28 09:50:23;;;;;;;;;;;;;;;5.81;92.14;98849.66;5081915;28;19924;-72
2023/03/28 09:52:50;;;;;;;;;;;;;;;5.66;91.18;98841.97;5073463;28;19925;-70
2023/03/28 09:55:18;;;;;;;;;;;;;;;5.71;94.00;98846.63;5079767;28;19925;-70
2023/03/28 09:58:02;;;;;;;;;;;;;;;5.75;93.28;98845.19;5083795;28;19928;-71
2023/03/28 10:00:28;;;;;;;;;;;;;;;5.82;92.47;98852.06;5077587;28;19960;-70
2023/03/28 10:02:55;;;;;;;;;;;;;;;5.74;92.24;98852.31;5083107;28;19921;-70
2023/03/28 10:05:33;;;;;;;;;;;;;;;5.74;91.40;98856.81;5082552;28;19947;-71
2023/03/28 10:08:03;;;;;;;;;;;;;;;5.74;92.04;98849.66;5072201;28;19926;-71
2023/03/28 10:10:29;;;;;;;;;;;;;;;5.88;92.56;98850.47;5079429;28;19932;-72
2023/03/28 10:12:56;;;;;;;;;;;;;;;5.88;91.29;98856.56;5082353;28;19924;-71
2023/03/28 10:15:32;;;;;;;;;;;;;;;5.98;92.43;98846.34;5082043;28;19924;-71
2023/03/28 10:17:59;;;;;;;;;;;;;;;5.96;91.10;98858.19;5071432;28;19924;-71
2023/03/28 10:20:25;;;;;;;;;;;;;;;6.03;87.74;98858.97;5078776;28;19971;-71
2023/03/28 10:22:53;;;;;;;;;;;;;;;6.11;90.05;98855.25;5082116;28;19987;-71
2023/03/28 10:25:21;;;;;;;;;;;;;;;6.09;89.45;98852.84;5082341;28;19921;-72
2023/03/28 10:27:48;;;;;;;;;;;;;;;6.16;90.93;98852.81;5079019;28;20130;-71
2023/03/28 10:30:20;;;;;;;;;;;;;;;6.28;89.39;98853.75;5078452;28;19935;-71
2023/03/28 10:33:07;;;;;;;;;;;;;;;6.30;89.42;98860.47;5081477;28;20405;-72
2023/03/28 10:35:34;;;;;;;;;;;;;;;6.29;88.46;98864.16;5080723;28;19928;-71
2023/03/28 10:38:03;;;;;;;;;;;;;;;6.15;90.03;98859.94;5078499;28;19984;-70
2023/03/28 10:40:31;;;;;;;;;;;;;;;6.14;89.08;98860.16;5079120;28;19936;-72
2023/03/28 10:42:58;;;;;;;;;;;;;;;6.13;87.13;98867.28;5081745;28;19931;-72
2023/03/28 10:45:33;;;;;;;;;;;;;;;6.05;89.38;98864.88;5081164;28;19932;-71
2023/03/28 10:48:04;;;;;;;;;;;;;;;6.08;88.63;98859.16;5071334;28;20024;-70
2023/03/28 10:50:44;;;;;;;;;;;;;;;6.15;91.55;98856.47;5079031;28;19970;-70
2023/03/28 10:53:23;;;;;;;;;;;;;;;6.20;89.66;98864.59;5081806;28;20026;-72
2023/03/28 10:55:59;;;;;;;;;;;;;;;6.16;88.38;98863.41;5077147;28;19988;-71
2023/03/28 10:58:30;;;;;;;;;;;;;;;6.23;89.04;98866.84;5078546;28;19921;-72
2023/03/28 11:01:00;;;;;;;;;;;;;;;6.15;88.76;98859.94;5081816;28;19947;-71
2023/03/28 11:03:37;;;;;;;;;;;;;;;6.17;88.45;98863.19;5081537;28;19924;-71
2023/03/28 11:06:06;;;;;;;;;;;;;;;6.19;88.41;98866.44;5078236;28;19921;-71
2023/03/28 11:08:39;;;;;;;;;;;;;;;6.18;87.94;98867.47;5079092;28;19978;-73
2023/03/28 11:11:09;;;;;;;;;;;;;;;6.24;88.02;98863.97;5081629;28;19996;-72
2023/03/28 11:13:42;;;;;;;;;;;;;;;6.30;88.33;98857.00;5079912;28;19988;-72
2023/03/28 11:16:14;;;;;;;;;;;;;;;6.47;87.97;98852.81;5078058;28;19932;-71
2023/03/28 11:18:49;;;;;;;;;;;;;;;6.56;86.20;98854.19;5080349;28;19925;-71
2023/03/28 11:21:22;;;;;;;;;;;;;;;6.66;86.30;98849.22;5081459;28;19921;-71
2023/03/28 11:23:53;;;;;;;;;;;;;;;6.65;84.00;98846.81;5093786;28;19925;-72
2023/03/28 11:26:24;;;;;;;;;;;;;;;6.85;85.40;98858.91;5078295;28;19924;-71
2023/03/28 11:28:57;;;;;;;;;;;;;;;7.00;84.16;98863.88;5070100;28;19935;-72
2023/03/28 11:31:26;;;;;;;;;;;;;;;7.04;81.99;98849.97;5079614;28;19925;-71
2023/03/28 11:33:57;;;;;;;;;;;;;;;6.88;81.89;98847.84;5070188;28;19936;-72
2023/03/28 11:36:28;;;;;;;;;;;;;;;7.11;78.57;98844.59;5078047;28;19928;-71
2023/03/28 11:38:57;;;;;;;;;;;;;;;7.05;79.57;98845.47;5070582;28;19936;-71
2023/03/28 11:41:25;;;;;;;;;;;;;;;7.07;79.78;98846.88;5077845;28;19925;-71
2023/03/28 11:43:55;;;;;;;;;;;;;;;7.03;79.10;98850.16;5069979;28;19931;-72
2023/03/28 11:46:24;;;;;;;;;;;;;;;7.09;78.48;98841.31;5077903;28;19925;-71
2023/03/28 11:48:55;;;;;;;;;;;;;;;7.16;79.25;98851.91;5077831;28;19932;-72
2023/03/28 11:51:26;;;;;;;;;;;;;;;7.06;78.19;98850.53;5077963;28;19943;-71
2023/03/28 11:53:55;;;;;;;;;;;;;;;7.09;79.10;98843.97;5070116;28;20031;-71
2023/03/28 11:56:29;;;;;;;;;;;;;;;7.15;78.94;98843.09;5080140;28;19943;-72
2023/03/28 11:58:59;;;;;;;;;;;;;;;7.27;77.66;98841.34;5073562;28;19912;-71
2023/03/28 12:01:28;;;;;;;;;;;;;;;7.26;74.74;98841.59;5083438;28;19925;-71
2023/03/28 12:04:00;;;;;;;;;;;;;;;7.27;72.49;98844.00;5081530;28;20035;-72
2023/03/28 12:06:30;;;;;;;;;;;;;;;7.11;76.57;98836.63;5081651;28;19928;-72
2023/03/28 12:09:00;;;;;;;;;;;;;;;7.24;72.74;98841.78;5084604;28;19928;-71
2023/03/28 12:11:30;;;;;;;;;;;;;;;7.16;73.25;98843.94;5084202;28;19932;-71
2023/03/28 12:13:58;;;;;;;;;;;;;;;7.34;72.73;98852.75;5081133;28;20357;-70
2023/03/28 12:16:28;;;;;;;;;;;;;;;7.36;72.58;98836.59;5081035;28;19925;-72
2023/03/28 12:18:57;;;;;;;;;;;;;;;7.30;74.32;98827.66;5073448;28;19924;-71
2023/03/28 12:21:27;;;;;;;;;;;;;;;7.23;72.57;98821.59;5081034;28;19973;-72
2023/03/28 12:24:03;;;;;;;;;;;;;;;7.47;69.72;98825.22;5072946;28;19983;-71
2023/03/28 12:26:34;;;;;;;;;;;;;;;7.42;65.65;98820.59;5081212;28;19924;-72
2023/03/28 12:29:07;;;;;;;;;;;;;;;7.35;68.61;98816.38;5084447;28;19920;-72
2023/03/28 12:31:40;;;;;;;;;;;;;;;7.43;67.48;98808.91;5074840;28;19960;-71
2023/03/28 12:34:09;;;;;;;;;;;;;;;7.45;66.79;98814.84;5084215;28;19978;-71
2023/03/28 12:36:39;;;;;;;;;;;;;;;7.23;72.40;98810.97;5084379;28;19963;-71
2023/03/28 12:39:15;;;;;;;;;;;;;;;7.48;66.90;98809.06;5082637;28;19928;-72
2023/03/28 12:41:41;;;;;;;;;;;;;;;7.32;61.50;98801.69;5084694;28;19975;-71
2023/03/28 12:44:13;;;;;;;;;;;;;;;7.41;61.49;98810.16;5084835;28;19943;-72
2023/03/28 12:46:44;;;;;;;;;;;;;;;7.36;59.13;98805.53;5082398;28;19970;-71
2023/03/28 12:49:13;;;;;;;;;;;;;;;7.35;62.30;98795.91;5080604;28;19921;-71
2023/03/28 12:51:42;;;;;;;;;;;;;;;7.31;67.96;98805.34;5082277;28;19932;-71
2023/03/28 12:54:23;;;;;;;;;;;;;;;7.46;65.02;98797.03;5083744;28;19931;-71
2023/03/28 12:56:59;;;;;;;;;;;;;;;7.52;61.97;98793.50;5081063;28;19925;-72
2023/03/28 12:59:36;;;;;;;;;;;;;;;7.48;67.41;98793.13;5080882;28;19957;-72